Time;durP1;ratioP1;P1;durP2;ratioP2;P2;SDS_P1;SDS_P2;PMS_P1;PMS_P2;Temp;Humidity;BMP_temperature;BMP_pressure;BME280_temperature;BME280_humidity;BME280_pressure;Samples;Min_cycle;Max_cycle;Signal;HPM_P1;HPM_P2
2023/09/22 00:02:12;;;;;;;16.73;11.85;;;537.90;2406.40;;;;;;5075644;28;20017;-75
2023/09/22 00:04:39;;;;;;;15.93;11.68;;;537.90;2406.40;;;;;;5073971;28;20469;-75
2023/09/22 00:07:06;;;;;;;23.63;14.00;;;537.90;2406.40;;;;;;5077447;28;20529;-75
2023/09/22 00:09:32;;;;;;;19.75;12.07;;;537.90;2406.40;;;;;;5075451;28;20019;-75
2023/09/22 00:11:59;;;;;;;20.15;12.50;;;538.00;2406.40;;;;;;5075223;28;20024;-75
2023/09/22 00:14:26;;;;;;;19.90;12.55;;;538.00;2406.40;;;;;;5068112;28;20025;-74
2023/09/22 00:16:52;;;;;;;18.77;11.68;;;538.00;2406.40;;;;;;5074384;28;20024;-76
2023/09/22 00:19:18;;;;;;;24.42;12.23;;;538.00;2406.40;;;;;;5074504;28;20032;-75
2023/09/22 00:21:44;;;;;;;21.75;12.75;;;538.00;2406.40;;;;;;5068505;28;20024;-75
2023/09/22 00:24:09;;;;;;;15.85;11.60;;;538.00;2406.40;;;;;;5074314;28;20013;-74
2023/09/22 00:26:35;;;;;;;16.80;11.23;;;538.00;2406.40;;;;;;5065302;28;20017;-79
2023/09/22 00:29:01;;;;;;;17.83;12.43;;;538.00;2406.40;;;;;;5075500;28;20024;-75
2023/09/22 00:31:27;;;;;;;22.63;12.27;;;538.00;2406.40;;;;;;5071642;28;20143;-78
2023/09/22 00:33:53;;;;;;;17.42;11.80;;;538.00;2406.40;;;;;;5075026;28;20078;-75
2023/09/22 00:36:19;;;;;;;22.33;12.45;;;538.00;2406.40;;;;;;5075352;28;20077;-76
2023/09/22 00:38:44;;;;;;;15.15;11.45;;;538.00;2406.40;;;;;;5074744;28;20024;-76
2023/09/22 00:41:10;;;;;;;19.35;11.38;;;537.80;2406.40;;;;;;5074953;28;20078;-76
2023/09/22 00:43:36;;;;;;;20.00;12.23;;;537.80;2406.40;;;;;;5074905;28;20020;-74
2023/09/22 00:46:02;;;;;;;17.75;10.48;;;537.80;2406.40;;;;;;5075375;28;20024;-75
2023/09/22 00:48:31;;;;;;;19.83;12.18;;;537.90;2406.40;;;;;;5073859;28;20078;-76
2023/09/22 00:50:58;;;;;;;16.52;12.30;;;537.90;2406.40;;;;;;5073789;28;20047;-75
2023/09/22 00:53:24;;;;;;;25.65;11.50;;;537.70;2406.40;;;;;;5074785;28;20048;-75
2023/09/22 00:55:53;;;;;;;17.38;10.98;;;538.00;2406.40;;;;;;5076346;28;20063;-75
2023/09/22 00:58:19;;;;;;;22.58;10.90;;;538.00;2406.40;;;;;;5087221;28;20108;-74
2023/09/22 01:00:49;;;;;;;18.00;10.88;;;538.00;2406.40;;;;;;5074615;28;20031;-75
2023/09/22 01:03:19;;;;;;;21.58;11.48;;;538.10;2406.40;;;;;;5074748;28;20021;-76
2023/09/22 01:05:48;;;;;;;20.40;11.82;;;537.70;2406.40;;;;;;5074369;28;20481;-76
2023/09/22 01:08:14;;;;;;;15.25;10.63;;;538.20;2406.40;;;;;;5074405;28;20012;-76
2023/09/22 01:10:42;;;;;;;15.95;10.90;;;538.00;2406.40;;;;;;5074375;28;20036;-77
2023/09/22 01:13:09;;;;;;;28.17;11.98;;;538.00;2406.40;;;;;;5074471;28;20400;-75
2023/09/22 01:15:38;;;;;;;15.00;10.73;;;538.00;2406.40;;;;;;5074242;28;20084;-75
2023/09/22 01:18:07;;;;;;;17.50;11.00;;;538.00;2406.40;;;;;;5074529;28;20520;-76
2023/09/22 01:20:43;;;;;;;24.95;12.55;;;538.00;2406.40;;;;;;5074073;28;20055;-76
2023/09/22 01:23:13;;;;;;;19.80;11.07;;;538.00;2406.40;;;;;;5066427;28;20024;-75
2023/09/22 01:25:39;;;;;;;17.65;10.85;;;538.00;2406.40;;;;;;5074113;28;20029;-76
2023/09/22 01:28:06;;;;;;;19.42;11.13;;;538.00;2406.40;;;;;;5074089;28;20100;-75
2023/09/22 01:30:33;;;;;;;19.65;11.13;;;538.00;2406.40;;;;;;5073965;28;20032;-76
2023/09/22 01:33:02;;;;;;;19.08;10.43;;;538.10;2406.40;;;;;;5074094;28;20016;-76
2023/09/22 01:35:29;;;;;;;17.45;10.63;;;538.10;2406.40;;;;;;5073505;28;20142;-76
2023/09/22 01:38:08;;;;;;;17.83;10.32;;;538.20;2406.40;;;;;;5074012;28;20016;-75
2023/09/22 01:40:34;;;;;;;18.25;11.68;;;538.10;2406.40;;;;;;5073825;28;20044;-75
2023/09/22 01:43:00;;;;;;;19.23;11.48;;;538.10;2406.40;;;;;;5073799;28;20100;-75
2023/09/22 01:45:25;;;;;;;22.85;10.82;;;538.10;2406.40;;;;;;5073801;28;20077;-75
2023/09/22 01:47:51;;;;;;;19.67;10.85;;;538.00;2406.40;;;;;;5073675;28;20033;-76
2023/09/22 01:50:17;;;;;;;17.20;10.38;;;538.10;2406.40;;;;;;5073158;28;20032;-75
2023/09/22 01:52:43;;;;;;;14.55;10.27;;;538.10;2406.40;;;;;;5072839;28;20017;-74
2023/09/22 01:55:09;;;;;;;23.55;11.40;;;538.20;2406.40;;;;;;5073701;28;20020;-75
2023/09/22 01:57:35;;;;;;;23.83;11.40;;;538.10;2406.40;;;;;;5073484;28;20025;-77
2023/09/22 02:00:10;;;;;;;19.35;11.38;;;538.00;2406.40;;;;;;5072292;28;20013;-76
2023/09/22 02:02:36;;;;;;;18.75;10.50;;;538.00;2406.40;;;;;;5073524;28;20039;-78
2023/09/22 02:05:03;;;;;;;15.10;11.30;;;538.00;2406.40;;;;;;5073465;28;20477;-75
2023/09/22 02:07:29;;;;;;;18.20;11.90;;;538.00;2406.40;;;;;;5073251;28;20060;-77
2023/09/22 02:09:54;;;;;;;23.02;11.50;;;538.00;2406.40;;;;;;5073114;28;20102;-74
2023/09/22 02:12:20;;;;;;;21.25;11.75;;;538.00;2406.40;;;;;;5073386;28;20032;-75
2023/09/22 02:14:46;;;;;;;19.25;11.57;;;538.00;2406.40;;;;;;5073301;28;20024;-76
2023/09/22 02:17:13;;;;;;;22.30;11.00;;;538.00;2406.40;;;;;;5072209;28;20107;-76
2023/09/22 02:19:38;;;;;;;20.02;12.07;;;538.20;2406.40;;;;;;5072707;28;20488;-76
2023/09/22 02:22:05;;;;;;;21.20;10.20;;;538.20;2406.40;;;;;;5068627;28;20032;-76
2023/09/22 02:24:31;;;;;;;22.65;11.00;;;538.30;2406.40;;;;;;5072801;28;20031;-75
2023/09/22 02:26:57;;;;;;;17.48;10.27;;;538.30;2406.40;;;;;;5072657;28;20025;-75
2023/09/22 02:29:23;;;;;;;17.70;11.07;;;538.30;2406.40;;;;;;5071569;28;20044;-76
2023/09/22 02:31:49;;;;;;;17.98;11.90;;;538.40;2406.40;;;;;;5072265;28;20040;-76
2023/09/22 02:34:20;;;;;;;19.98;10.95;;;538.50;2406.40;;;;;;5072567;28;20044;-78
2023/09/22 02:36:49;;;;;;;14.75;10.02;;;563.20;2432.00;;;;;;5075248;28;20027;-76
2023/09/22 02:39:18;;;;;;;15.82;10.65;;;563.30;2432.00;;;;;;5078341;28;20037;-77
2023/09/22 02:41:44;;;;;;;16.58;10.88;;;563.30;2432.00;;;;;;5075892;28;20538;-75
2023/09/22 02:44:12;;;;;;;18.63;10.35;;;563.30;2432.00;;;;;;5071619;28;20024;-75
2023/09/22 02:46:38;;;;;;;19.05;9.40;;;563.20;2432.00;;;;;;5071336;28;20012;-74
2023/09/22 02:49:03;;;;;;;16.90;10.15;;;563.20;2432.00;;;;;;5072385;28;20029;-76
2023/09/22 02:51:29;;;;;;;18.38;11.00;;;538.50;2406.40;;;;;;5072132;28;20402;-76
2023/09/22 02:53:55;;;;;;;14.32;9.57;;;538.50;2406.40;;;;;;5072476;28;20021;-76
2023/09/22 02:56:21;;;;;;;17.67;11.13;;;538.40;2406.40;;;;;;5072077;28;20078;-75
2023/09/22 02:58:48;;;;;;;26.23;10.80;;;538.40;2406.40;;;;;;5072445;28;20389;-75
2023/09/22 03:01:14;;;;;;;20.63;11.30;;;538.40;2406.40;;;;;;5072228;28;20024;-75
2023/09/22 03:03:43;;;;;;;22.27;10.57;;;538.40;2406.40;;;;;;5075401;28;20444;-75
2023/09/22 03:06:12;;;;;;;18.73;10.50;;;538.40;2406.40;;;;;;5075975;28;20020;-77
2023/09/22 03:08:41;;;;;;;22.83;11.23;;;538.30;2406.40;;;;;;5076419;28;20028;-74
2023/09/22 03:11:07;;;;;;;18.00;11.25;;;538.30;2406.40;;;;;;5074285;28;20052;-74
2023/09/22 03:13:33;;;;;;;25.10;10.32;;;538.30;2406.40;;;;;;5076548;28;20017;-74
2023/09/22 03:16:00;;;;;;;21.52;10.48;;;538.30;2406.40;;;;;;5076003;28;20024;-75
2023/09/22 03:18:27;;;;;;;17.17;9.23;;;538.30;2406.40;;;;;;5076552;28;20221;-75
2023/09/22 03:20:52;;;;;;;21.35;10.27;;;538.30;2406.40;;;;;;5074989;28;20083;-74
2023/09/22 03:23:18;;;;;;;19.25;10.30;;;538.30;2406.40;;;;;;5075900;28;20024;-76
2023/09/22 03:25:44;;;;;;;27.40;10.10;;;538.30;2406.40;;;;;;5076191;28;20017;-76
2023/09/22 03:28:10;;;;;;;15.70;9.38;;;538.40;2406.40;;;;;;5076116;28;20032;-76
2023/09/22 03:30:36;;;;;;;14.63;8.68;;;538.40;2406.40;;;;;;5075956;28;20037;-76
2023/09/22 03:33:02;;;;;;;20.63;10.77;;;538.40;2406.40;;;;;;5074440;28;20473;-74
2023/09/22 03:35:28;;;;;;;22.23;11.20;;;538.40;2406.40;;;;;;5075790;28;20170;-76
2023/09/22 03:37:55;;;;;;;19.90;9.68;;;538.40;2406.40;;;;;;5075626;28;20024;-76
2023/09/22 03:40:40;;;;;;;17.05;10.77;;;538.40;2406.40;;;;;;5073423;28;20408;-75
2023/09/22 03:43:06;;;;;;;19.00;10.43;;;538.30;2406.40;;;;;;5075573;28;20173;-76
2023/09/22 03:45:32;;;;;;;17.80;10.00;;;538.40;2406.40;;;;;;5075657;28;20078;-75
2023/09/22 03:47:58;;;;;;;23.75;10.05;;;538.40;2406.40;;;;;;5075044;28;20069;-76
2023/09/22 03:50:24;;;;;;;16.75;9.73;;;538.40;2406.40;;;;;;5066738;28;20108;-77
2023/09/22 03:52:50;;;;;;;21.27;9.70;;;538.30;2406.40;;;;;;5074258;28;20125;-75
2023/09/22 03:55:16;;;;;;;19.60;9.80;;;538.30;2406.40;;;;;;5075509;28;20024;-76
2023/09/22 03:57:42;;;;;;;22.58;10.15;;;538.30;2406.40;;;;;;5075306;28;20021;-75
2023/09/22 04:00:18;;;;;;;18.50;10.35;;;538.20;2406.40;;;;;;5074092;28;20358;-75
2023/09/22 04:02:45;;;;;;;23.55;10.40;;;538.30;2406.40;;;;;;5072039;28;20021;-76
2023/09/22 04:05:13;;;;;;;17.40;10.00;;;538.30;2406.40;;;;;;5075347;28;20071;-75
2023/09/22 04:07:40;;;;;;;20.23;10.70;;;538.30;2406.40;;;;;;5074333;28;20373;-76
2023/09/22 04:10:07;;;;;;;20.42;10.77;;;538.20;2406.40;;;;;;5073665;28;20389;-75
2023/09/22 04:12:35;;;;;;;19.20;10.75;;;538.00;2406.40;;;;;;5075169;28;20056;-74
2023/09/22 04:15:04;;;;;;;24.02;11.30;;;538.10;2406.40;;;;;;5065785;28;20023;-76
2023/09/22 04:17:31;;;;;;;20.92;11.18;;;538.00;2406.40;;;;;;5074099;28;20115;-75
2023/09/22 04:19:58;;;;;;;18.40;11.40;;;537.80;2406.40;;;;;;5075581;28;20108;-75
2023/09/22 04:22:23;;;;;;;27.73;11.98;;;537.80;2406.40;;;;;;5074678;28;20021;-76
2023/09/22 04:24:51;;;;;;;24.20;12.15;;;537.70;2406.40;;;;;;5073585;28;20029;-76
2023/09/22 04:27:17;;;;;;;18.13;11.45;;;537.70;2406.40;;;;;;5075192;28;20028;-76
2023/09/22 04:29:43;;;;;;;25.40;11.88;;;537.70;2406.40;;;;;;5074645;28;20145;-75
2023/09/22 04:32:08;;;;;;;25.25;12.45;;;537.70;2406.40;;;;;;5074524;28;20029;-76
2023/09/22 04:34:35;;;;;;;20.15;11.07;;;537.70;2406.40;;;;;;5075108;28;20099;-76
2023/09/22 04:37:04;;;;;;;25.45;11.63;;;537.70;2406.40;;;;;;5074136;28;20435;-77
2023/09/22 04:39:31;;;;;;;20.52;10.85;;;537.70;2406.40;;;;;;5074461;28;20489;-74
2023/09/22 04:41:58;;;;;;;26.42;11.18;;;537.60;2406.40;;;;;;5072558;28;20107;-75
2023/09/22 04:44:24;;;;;;;13.10;8.90;;;537.70;2406.40;;;;;;5075076;28;20025;-76
2023/09/22 04:46:49;;;;;;;18.20;9.23;;;537.70;2406.40;;;;;;5070941;28;20021;-74
2023/09/22 04:49:15;;;;;;;17.92;8.32;;;537.70;2406.40;;;;;;5080829;28;20044;-75
2023/09/22 04:51:42;;;;;;;16.33;8.57;;;537.70;2406.40;;;;;;5079304;28;20069;-75
2023/09/22 04:54:07;;;;;;;13.52;6.68;;;537.70;2406.40;;;;;;5074622;28;20012;-74
2023/09/22 04:56:33;;;;;;;19.95;8.68;;;537.80;2406.40;;;;;;5068032;28;20043;-75
2023/09/22 04:59:00;;;;;;;14.32;7.50;;;537.80;2406.40;;;;;;5067330;28;20466;-74
2023/09/22 05:01:35;;;;;;;15.35;7.30;;;537.80;2406.40;;;;;;5079981;28;20028;-74
2023/09/22 05:04:01;;;;;;;18.10;7.05;;;537.80;2406.40;;;;;;5075267;28;20027;-74
2023/09/22 05:06:27;;;;;;;16.80;6.82;;;537.80;2406.40;;;;;;5075892;28;20036;-75
2023/09/22 05:08:53;;;;;;;9.45;6.40;;;537.70;2406.40;;;;;;5073237;28;20069;-74
2023/09/22 05:11:20;;;;;;;23.00;7.95;;;537.80;2406.40;;;;;;5073020;28;20045;-74
2023/09/22 05:13:46;;;;;;;14.20;6.65;;;537.80;2406.40;;;;;;5066675;28;20017;-74
2023/09/22 05:16:18;;;;;;;12.02;7.35;;;537.80;2406.40;;;;;;5079669;28;20024;-78
2023/09/22 05:18:43;;;;;;;15.85;7.43;;;537.80;2406.40;;;;;;5062966;28;20474;-74
2023/09/22 05:21:09;;;;;;;20.88;6.80;;;538.00;2406.40;;;;;;5068869;28;20035;-75
2023/09/22 05:23:36;;;;;;;16.33;7.18;;;538.00;2406.40;;;;;;5080238;28;20013;-75
2023/09/22 05:26:09;;;;;;;15.40;6.60;;;538.00;2406.40;;;;;;5068549;28;20025;-74
2023/09/22 05:28:36;;;;;;;16.50;7.93;;;538.00;2406.40;;;;;;5070349;28;20017;-76
2023/09/22 05:31:05;;;;;;;15.15;7.07;;;538.10;2406.40;;;;;;5067829;28;20040;-74
2023/09/22 05:33:32;;;;;;;20.95;7.65;;;538.00;2406.40;;;;;;5074257;28;20024;-77
2023/09/22 05:35:58;;;;;;;11.90;7.25;;;538.00;2406.40;;;;;;5072585;28;20032;-72
2023/09/22 05:38:24;;;;;;;11.15;7.05;;;538.00;2406.40;;;;;;5083362;28;20020;-78
2023/09/22 05:40:49;;;;;;;13.65;7.22;;;538.10;2406.40;;;;;;5078849;28;20071;-79
2023/09/22 05:43:18;;;;;;;15.23;5.72;;;538.20;2406.40;;;;;;5074270;28;20025;-79
2023/09/22 05:45:44;;;;;;;18.65;5.85;;;538.30;2406.40;;;;;;5077231;28;20054;-78
2023/09/22 05:48:10;;;;;;;10.68;5.78;;;538.30;2406.40;;;;;;5078294;28;20040;-79
2023/09/22 05:50:36;;;;;;;14.85;5.28;;;538.40;2406.40;;;;;;5069055;28;20520;-76
2023/09/22 05:53:07;;;;;;;10.82;4.82;;;538.40;2406.40;;;;;;5074316;28;20375;-77
2023/09/22 05:55:33;;;;;;;12.65;4.20;;;538.40;2406.40;;;;;;5091057;28;20465;-76
2023/09/22 05:58:00;;;;;;;14.13;4.32;;;538.50;2406.40;;;;;;5086358;28;20039;-77
2023/09/22 06:00:31;;;;;;;18.75;5.25;;;563.20;2432.00;;;;;;5070020;28;20033;-80
2023/09/22 06:02:57;;;;;;;7.75;4.32;;;563.30;2432.00;;;;;;5073737;28;20021;-78
2023/09/22 06:05:23;;;;;;;9.57;4.25;;;563.40;2432.00;;;;;;5083398;28;20009;-76
2023/09/22 06:07:50;;;;;;;9.00;4.47;;;563.40;2432.00;;;;;;5086802;28;20016;-78
2023/09/22 06:10:16;;;;;;;10.55;4.55;;;563.50;2432.00;;;;;;5088786;28;20025;-76
2023/09/22 06:12:42;;;;;;;11.77;5.20;;;563.60;2432.00;;;;;;5075381;28;20130;-78
2023/09/22 06:15:09;;;;;;;10.05;4.88;;;563.70;2432.00;;;;;;5070060;28;20021;-78
2023/09/22 06:17:36;;;;;;;8.07;3.78;;;563.70;2432.00;;;;;;5076893;28;20453;-77
2023/09/22 06:20:18;;;;;;;10.55;4.38;;;563.80;2432.00;;;;;;5075929;28;20020;-75
2023/09/22 06:22:49;;;;;;;15.32;4.07;;;564.00;2432.00;;;;;;5073860;28;20020;-76
2023/09/22 06:25:15;;;;;;;13.25;4.22;;;564.00;2432.00;;;;;;5066833;28;20033;-76
2023/09/22 06:27:43;;;;;;;8.20;3.85;;;564.10;2432.00;;;;;;5075034;28;20382;-75
2023/09/22 06:30:12;;;;;;;8.85;4.65;;;588.80;2432.00;;;;;;5066884;28;20031;-75
2023/09/22 06:32:42;;;;;;;9.52;4.00;;;588.90;2432.00;;;;;;5069973;28;20025;-78
2023/09/22 06:35:11;;;;;;;10.05;3.80;;;564.10;2432.00;;;;;;5068559;28;20029;-76
2023/09/22 06:37:38;;;;;;;10.95;4.28;;;589.20;2432.00;;;;;;5062649;28;20029;-77
2023/09/22 06:40:11;;;;;;;11.98;4.10;;;589.30;2432.00;;;;;;5079451;28;20119;-75
2023/09/22 06:42:41;;;;;;;10.88;4.05;;;589.50;2432.00;;;;;;5060101;28;20035;-77
2023/09/22 06:45:12;;;;;;;6.68;3.50;;;589.70;2432.00;;;;;;5067683;28;20119;-81
2023/09/22 06:47:38;;;;;;;8.52;4.35;;;614.40;2432.00;;;;;;5069917;28;20025;-79
2023/09/22 06:50:09;;;;;;;12.20;4.40;;;614.50;2432.00;;;;;;5078481;28;20063;-82
2023/09/22 06:52:41;;;;;;;10.00;3.60;;;614.40;2432.00;;;;;;5074811;28;20024;-76
2023/09/22 06:55:09;;;;;;;5.72;3.30;;;614.60;2432.00;;;;;;5073735;28;20028;-75
2023/09/22 06:57:40;;;;;;;13.13;3.10;;;614.70;2432.00;;;;;;5068031;28;20103;-76
2023/09/22 07:00:15;;;;;;;8.15;3.67;;;614.70;2432.00;;;;;;5084508;28;20031;-77
2023/09/22 07:02:41;;;;;;;6.13;3.13;;;614.90;2432.00;;;;;;5073038;28;20027;-75
2023/09/22 07:05:07;;;;;;;10.77;4.05;;;615.10;2432.00;;;;;;5077616;28;20285;-76
2023/09/22 07:07:33;;;;;;;8.32;3.95;;;615.10;2432.00;;;;;;5070660;28;20098;-78
2023/09/22 07:09:59;;;;;;;12.57;3.70;;;640.00;2432.00;;;;;;5078938;28;20468;-77
2023/09/22 07:12:24;;;;;;;9.05;3.45;;;640.20;2432.00;;;;;;5074573;28;20051;-76
2023/09/22 07:14:50;;;;;;;8.07;3.50;;;640.10;2432.00;;;;;;5073399;28;20024;-78
2023/09/22 07:17:16;;;;;;;8.45;3.03;;;640.30;2432.00;;;;;;5086681;28;20024;-77
2023/09/22 07:19:42;;;;;;;8.15;3.58;;;640.30;2432.00;;;;;;5072114;28;20464;-76
2023/09/22 07:22:08;;;;;;;13.98;2.63;;;640.40;2432.00;;;;;;5073175;28;20025;-79
2023/09/22 07:24:34;;;;;;;10.30;3.17;;;640.30;2432.00;;;;;;5071276;28;20019;-78
2023/09/22 07:27:00;;;;;;;8.10;3.17;;;640.40;2432.00;;;;;;5067558;28;20461;-76
2023/09/22 07:29:25;;;;;;;14.70;3.67;;;640.60;2432.00;;;;;;5082310;28;20050;-78
2023/09/22 07:31:51;;;;;;;7.05;2.53;;;640.80;2432.00;;;;;;5080358;28;20468;-78
2023/09/22 07:34:17;;;;;;;10.15;3.55;;;665.70;2432.00;;;;;;5086824;28;20031;-77
2023/09/22 07:36:42;;;;;;;12.32;3.70;;;665.70;2432.00;;;;;;5069678;28;20036;-78
2023/09/22 07:39:09;;;;;;;7.20;2.60;;;665.90;2432.00;;;;;;5071881;28;20064;-76
2023/09/22 07:41:36;;;;;;;4.95;2.55;;;665.90;2432.00;;;;;;5070469;28;20025;-78
2023/09/22 07:44:03;;;;;;;5.45;3.20;;;666.00;2432.00;;;;;;5072310;28;20049;-78
2023/09/22 07:46:29;;;;;;;12.02;3.63;;;666.20;2432.00;;;;;;5066655;28;20447;-77
2023/09/22 07:48:55;;;;;;;7.00;2.78;;;666.30;2432.00;;;;;;5063681;28;20063;-77
2023/09/22 07:51:22;;;;;;;15.32;3.65;;;666.50;2432.00;;;;;;5077048;28;20140;-78
2023/09/22 07:53:47;;;;;;;9.25;3.45;;;691.30;2432.00;;;;;;5075392;28;20424;-76
2023/09/22 07:56:16;;;;;;;9.70;3.05;;;691.30;2432.00;;;;;;5075790;28;20139;-78
2023/09/22 07:58:42;;;;;;;13.93;3.95;;;691.30;2432.00;;;;;;5059789;28;20020;-78
2023/09/22 08:01:16;;;;;;;8.57;3.03;;;691.40;2432.00;;;;;;5069580;28;20025;-77
2023/09/22 08:03:45;;;;;;;6.87;2.87;;;691.60;2432.00;;;;;;5074028;28;20074;-78
2023/09/22 08:06:12;;;;;;;11.02;3.42;;;;;;;;;;5084005;28;20284;-78
2023/09/22 08:08:38;;;;;;;11.57;3.33;;;;;;;;;;5076113;28;20149;-76
2023/09/22 08:11:07;;;;;;;11.68;4.07;;;692.10;2355.20;;;;;;5080983;28;20047;-75
2023/09/22 08:13:33;;;;;;;5.10;2.58;;;691.90;2380.80;;;;;;5076834;28;20031;-75
2023/09/22 08:16:00;;;;;;;9.48;2.80;;;691.90;2380.80;;;;;;5077893;28;20021;-75
2023/09/22 08:18:25;;;;;;;11.55;3.28;;;691.80;2380.80;;;;;;5074589;28;20397;-76
2023/09/22 08:20:51;;;;;;;11.13;3.30;;;692.00;2380.80;;;;;;5078466;28;20027;-76
2023/09/22 08:23:17;;;;;;;8.48;3.47;;;716.80;2380.80;;;;;;5067382;28;20035;-77
2023/09/22 08:25:43;;;;;;;7.13;3.25;;;717.10;2355.20;;;;;;5076043;28;20116;-76
2023/09/22 08:28:15;;;;;;;8.82;3.08;;;717.10;2329.60;;;;;;5068933;28;20103;-76
2023/09/22 08:30:41;;;;;;;11.88;3.95;;;716.90;2329.60;;;;;;5070546;28;20043;-75
2023/09/22 08:33:07;;;;;;;12.52;3.60;;;717.20;2329.60;;;;;;5073153;28;20439;-76
2023/09/22 08:35:33;;;;;;;7.13;3.00;;;716.80;2329.60;;;;;;5070875;28;20082;-76
2023/09/22 08:38:00;;;;;;;11.10;3.35;;;692.00;2304.00;;;;;;5066284;28;20033;-75
2023/09/22 08:40:26;;;;;;;11.52;3.58;;;691.70;2355.20;;;;;;5081141;28;20557;-76
2023/09/22 08:42:55;;;;;;;12.13;3.78;;;691.90;2329.60;;;;;;5068279;28;20021;-75
2023/09/22 08:45:21;;;;;;;7.43;2.90;;;717.10;2304.00;;;;;;5071801;28;20458;-74
2023/09/22 08:47:49;;;;;;;7.47;3.67;;;717.50;2278.40;;;;;;5070469;28;20410;-74
2023/09/22 08:50:17;;;;;;;10.23;3.28;;;717.60;2227.20;;;;;;5065183;28;20025;-73
2023/09/22 08:52:46;;;;;;;8.88;3.47;;;742.40;2227.20;;;;;;5067364;28;20028;-75
2023/09/22 08:55:13;;;;;;;8.65;3.47;;;742.50;2201.60;;;;;;5075389;28;20020;-73
2023/09/22 08:57:44;;;;;;;15.60;3.72;;;742.80;2176.00;;;;;;5074030;28;20033;-76
2023/09/22 09:00:21;;;;;;;11.82;3.28;;;742.90;2124.80;;;;;;5081294;28;20058;-75
2023/09/22 09:02:58;;;;;;;7.25;3.25;;;;;;;;;;5067134;28;20036;-73
2023/09/22 09:05:27;;;;;;;15.32;3.95;;;;;;;;;;5067229;28;20035;-75
2023/09/22 09:07:54;;;;;;;10.63;4.28;;;768.30;1996.80;;;;;;5068774;28;20079;-74
2023/09/22 09:10:26;;;;;;;16.42;3.50;;;;;;;;;;5081121;28;20024;-76
2023/09/22 09:12:53;;;;;;;17.40;3.97;;;768.90;1945.60;;;;;;5072312;28;20102;-76
2023/09/22 09:15:18;;;;;;;14.05;4.72;;;793.60;1945.60;;;;;;5071508;28;20035;-74
2023/09/22 09:17:46;;;;;;;10.75;4.10;;;;;;;;;;5059704;28;20025;-75
2023/09/22 09:20:12;;;;;;;12.35;4.10;;;;;;;;;;5074893;28;20024;-75
2023/09/22 09:22:38;;;;;;;11.25;3.58;;;793.60;1945.60;;;;;;5069187;28;20078;-75
2023/09/22 09:25:14;;;;;;;11.13;4.18;;;793.90;1920.00;;;;;;5075446;28;20049;-75
2023/09/22 09:27:40;;;;;;;14.00;5.10;;;794.00;1894.40;;;;;;5063752;28;20047;-75
2023/09/22 09:30:13;;;;;;;14.43;4.72;;;793.70;1843.20;;;;;;5071112;28;20032;-75
2023/09/22 09:32:40;;;;;;;8.60;3.60;;;;;;;;;;5070758;28;20088;-75
2023/09/22 09:35:06;;;;;;;10.45;4.40;;;794.20;1843.20;;;;;;5071588;28;20029;-75
2023/09/22 09:37:32;;;;;;;13.05;4.70;;;794.30;1792.00;;;;;;5058160;28;20112;-76
2023/09/22 09:39:58;;;;;;;11.80;4.18;;;794.30;1792.00;;;;;;5077553;28;20068;-75
2023/09/22 09:42:25;;;;;;;13.50;4.82;;;794.20;1766.40;;;;;;5075022;28;20043;-75
2023/09/22 09:44:53;;;;;;;11.10;4.90;;;794.40;1766.40;;;;;;5068624;28;20046;-75
2023/09/22 09:47:26;;;;;;;17.90;4.72;;;794.50;1766.40;;;;;;5067189;28;20024;-76
2023/09/22 09:49:57;;;;;;;15.85;4.85;;;794.50;1740.80;;;;;;5087673;28;20039;-75
2023/09/22 09:52:42;;;;;;;13.02;4.53;;;794.20;1766.40;;;;;;5077077;28;20035;-76
2023/09/22 09:55:09;;;;;;;17.15;4.80;;;819.30;1715.20;;;;;;5069075;28;20103;-75
2023/09/22 09:57:41;;;;;;;13.43;5.18;;;794.40;1715.20;;;;;;5076546;28;20491;-75
2023/09/22 10:00:14;;;;;;;12.93;4.30;;;793.80;1740.80;;;;;;5070297;28;20024;-76
2023/09/22 10:02:43;;;;;;;24.13;5.40;;;793.70;1766.40;;;;;;5063314;28;20115;-75
2023/09/22 10:05:13;;;;;;;13.65;4.47;;;793.80;1740.80;;;;;;5062447;28;20074;-75
2023/09/22 10:07:41;;;;;;;17.73;4.85;;;794.00;1740.80;;;;;;5062703;28;20033;-75
2023/09/22 10:10:07;;;;;;;17.67;5.32;;;794.30;1740.80;;;;;;5079209;28;20085;-74
2023/09/22 10:12:33;;;;;;;23.15;4.85;;;819.80;1689.60;;;;;;5073240;28;20044;-74
2023/09/22 10:15:04;;;;;;;14.32;4.63;;;819.90;1664.00;;;;;;5071672;28;20027;-74
2023/09/22 10:17:31;;;;;;;22.30;4.85;;;844.90;1664.00;;;;;;5076685;28;20024;-75
2023/09/22 10:19:59;;;;;;;15.27;4.38;;;845.10;1638.40;;;;;;5069812;28;20116;-75
2023/09/22 10:22:24;;;;;;;20.38;5.05;;;845.20;1638.40;;;;;;5074926;28;20461;-74
2023/09/22 10:25:11;;;;;;;15.32;5.10;;;845.20;1612.80;;;;;;5070241;28;20028;-74
2023/09/22 10:27:57;;;;;;;13.68;5.32;;;845.60;1587.20;;;;;;5075037;28;20067;-74
2023/09/22 10:30:42;;;;;;;;;;;845.40;1638.40;;;;;;5056475;28;20033;-76
2023/09/22 10:33:22;;;;;;;16.92;5.25;;;845.30;1612.80;;;;;;5060474;28;20366;-76
2023/09/22 10:35:49;;;;;;;16.95;5.60;;;845.60;1638.40;;;;;;5055765;28;20025;-76
2023/09/22 10:38:15;;;;;;;14.32;5.10;;;870.40;1587.20;;;;;;5065694;28;20025;-75
2023/09/22 10:41:02;;;;;;;12.77;4.43;;;870.60;1561.60;;;;;;5057591;28;20585;-78
2023/09/22 10:43:32;;;;;;;14.77;5.25;;;870.50;1587.20;;;;;;5077519;28;20417;-76
2023/09/22 10:45:59;;;;;;;12.45;4.75;;;870.50;1536.00;;;;;;5069880;28;20025;-76
2023/09/22 10:48:35;;;;;;;13.63;5.18;;;870.50;1561.60;;;;;;5077084;28;20040;-76
2023/09/22 10:51:06;;;;;;;26.60;6.15;;;;;;;;;;5075876;28;20032;-77
2023/09/22 10:53:34;;;;;;;18.83;5.32;;;870.80;1536.00;;;;;;5068414;28;20115;-76
2023/09/22 10:56:05;;;;;;;16.23;5.68;;;871.10;1484.80;;;;;;5073971;28;20442;-75
2023/09/22 10:58:31;;;;;;;15.88;5.63;;;;;;;;;;5074373;28;20417;-75
2023/09/22 11:01:04;;;;;;;16.20;5.15;;;896.00;1484.80;;;;;;5067841;28;20068;-76
2023/09/22 11:03:32;;;;;;;14.13;5.28;;;871.30;1484.80;;;;;;5069157;28;20025;-76
2023/09/22 11:06:06;;;;;;;13.73;4.82;;;896.00;1459.20;;;;;;5079895;28;20032;-77
2023/09/22 11:08:46;;;;;;;22.95;6.43;;;871.30;1459.20;;;;;;5065775;28;20026;-77
2023/09/22 11:11:16;;;;;;;23.35;5.65;;;871.10;1433.60;;;;;;5066132;28;20517;-76
2023/09/22 11:13:52;;;;;;;21.00;6.03;;;871.30;1433.60;;;;;;5071688;28;20059;-77
2023/09/22 11:16:19;;;;;;;25.75;6.60;;;896.20;1408.00;;;;;;5066508;28;20028;-76
2023/09/22 11:18:45;;;;;;;14.32;5.75;;;871.20;1408.00;;;;;;5068334;28;20017;-77
2023/09/22 11:21:12;;;;;;;17.95;5.82;;;896.20;1382.40;;;;;;5078338;28;20073;-76
2023/09/22 11:23:40;;;;;;;19.38;6.15;;;896.10;1356.80;;;;;;5067149;28;20016;-76
2023/09/22 11:26:09;;;;;;;21.63;6.30;;;871.30;1356.80;;;;;;5070128;28;20024;-77
2023/09/22 11:28:45;;;;;;;20.70;6.00;;;896.10;1356.80;;;;;;5067084;28;20110;-76
2023/09/22 11:31:19;;;;;;;15.30;5.63;;;896.30;1331.20;;;;;;5069742;28;20029;-75
2023/09/22 11:33:46;;;;;;;17.50;6.18;;;896.50;1331.20;;;;;;5080373;28;20073;-76
2023/09/22 11:36:12;;;;;;;14.88;6.38;;;896.60;1331.20;;;;;;5072821;28;20021;-77
2023/09/22 11:38:45;;;;;;;23.50;6.85;;;871.30;1356.80;;;;;;5073528;28;20050;-75
2023/09/22 11:41:14;;;;;;;27.25;6.75;;;896.20;1331.20;;;;;;5067446;28;20118;-75
2023/09/22 11:43:46;;;;;;;20.52;6.18;;;896.10;1356.80;;;;;;5070426;28;20116;-75
2023/09/22 11:46:12;;;;;;;21.50;6.38;;;896.20;1331.20;;;;;;5081493;28;20385;-75
2023/09/22 11:48:51;;;;;;;15.18;6.07;;;870.90;1331.20;;;;;;5074665;28;20021;-75
2023/09/22 11:51:17;;;;;;;14.48;5.45;;;870.50;1356.80;;;;;;5071437;28;20033;-75
2023/09/22 11:53:43;;;;;;;23.40;6.68;;;870.80;1356.80;;;;;;5076217;28;20103;-75
2023/09/22 11:56:09;;;;;;;24.15;6.05;;;871.20;1331.20;;;;;;5078133;28;20127;-75
2023/09/22 11:58:35;;;;;;;23.88;6.05;;;896.20;1331.20;;;;;;5075384;28;20472;-76
2023/09/22 12:01:01;;;;;;;19.20;6.63;;;896.30;1305.60;;;;;;5074161;28;20030;-75
2023/09/22 12:03:26;;;;;;;22.50;6.82;;;871.30;1305.60;;;;;;5077168;28;20036;-75
2023/09/22 12:05:53;;;;;;;24.85;6.28;;;871.30;1331.20;;;;;;5073202;28;20464;-75
2023/09/22 12:08:18;;;;;;;20.17;6.68;;;896.10;1305.60;;;;;;5071009;28;20515;-75
2023/09/22 12:10:44;;;;;;;19.65;5.50;;;896.20;1331.20;;;;;;5081997;28;20032;-73
2023/09/22 12:13:10;;;;;;;21.85;5.55;;;896.40;1280.00;;;;;;5070896;28;20047;-73
2023/09/22 12:15:36;;;;;;;16.88;4.38;;;896.50;1254.40;;;;;;5075841;28;20052;-73